Time;durP1;ratioP1;P1;durP2;ratioP2;P2;SDS_P1;SDS_P2;PMS_P1;PMS_P2;Temp;Humidity;BMP_temperature;BMP_pressure;BME280_temperature;BME280_humidity;BME280_pressure;Samples;Min_cycle;Max_cycle;Signal;HPM_P1;HPM_P2
2021/06/08 00:00:51;;;;;;;10.58;6.75;;;;;;;12.71;87.56;94695.53;1682339;84;21153;-52
2021/06/08 00:03:17;;;;;;;9.45;6.50;;;;;;;12.72;87.51;94693.55;1679638;85;20978;-52
2021/06/08 00:05:44;;;;;;;9.33;7.25;;;;;;;12.72;87.40;94696.30;1685745;85;20950;-53
2021/06/08 00:08:10;;;;;;;9.68;6.60;;;;;;;12.70;87.46;94703.66;1683136;84;20990;-53
2021/06/08 00:10:37;;;;;;;11.05;7.10;;;;;;;12.67;87.50;94703.20;1685948;84;21093;-53
2021/06/08 00:13:04;;;;;;;10.40;7.05;;;;;;;12.61;87.74;94701.52;1684682;84;21126;-53
2021/06/08 00:15:30;;;;;;;7.72;6.55;;;;;;;12.60;87.71;94702.75;1681956;84;20986;-52
2021/06/08 00:17:57;;;;;;;11.88;6.85;;;;;;;12.56;87.57;94702.14;1684400;85;21438;-53
2021/06/08 00:20:24;;;;;;;10.43;7.33;;;;;;;12.54;87.75;94694.94;1683681;84;21045;-52
2021/06/08 00:22:50;;;;;;;18.27;7.58;;;;;;;12.55;87.99;94696.47;1681681;84;20957;-52
2021/06/08 00:25:17;;;;;;;8.63;6.42;;;;;;;12.58;87.88;94688.64;1682408;85;21124;-52
2021/06/08 00:27:43;;;;;;;10.55;6.70;;;;;;;12.60;87.80;94689.73;1684114;85;21057;-52
2021/06/08 00:30:11;;;;;;;10.68;6.50;;;;;;;12.64;87.69;94690.94;1685009;84;21053;-52
2021/06/08 00:32:39;;;;;;;10.28;6.65;;;;;;;12.64;87.38;94693.09;1682434;84;20974;-52
2021/06/08 00:35:07;;;;;;;9.65;6.75;;;;;;;12.62;87.21;94688.66;1686268;83;21410;-52
2021/06/08 00:37:35;;;;;;;12.37;7.10;;;;;;;12.59;86.94;94684.66;1680858;83;21165;-52
2021/06/08 00:40:01;;;;;;;7.55;6.47;;;;;;;12.54;86.75;94688.05;1659007;84;21113;-52
2021/06/08 00:42:33;;;;;;;7.42;6.62;;;;;;;12.48;86.70;94689.11;1680397;84;20973;-52
2021/06/08 00:45:00;;;;;;;9.33;6.40;;;;;;;12.43;86.89;94683.59;1685967;85;21520;-51
2021/06/08 00:47:26;;;;;;;12.25;7.25;;;;;;;12.42;86.94;94688.20;1685578;84;21541;-52
2021/06/08 00:49:53;;;;;;;13.05;7.58;;;;;;;12.37;86.78;94679.92;1681842;85;21099;-52
2021/06/08 00:52:19;;;;;;;14.15;7.30;;;;;;;12.30;86.98;94681.58;1682013;85;21525;-52
2021/06/08 00:54:46;;;;;;;8.13;6.47;;;;;;;12.27;87.24;94681.76;1686784;84;20997;-52
2021/06/08 00:57:12;;;;;;;10.35;7.25;;;;;;;12.27;87.44;94683.89;1681519;85;20998;-53
2021/06/08 00:59:38;;;;;;;9.80;7.85;;;;;;;12.29;87.33;94684.82;1680229;85;20946;-52
2021/06/08 01:02:05;;;;;;;10.05;7.37;;;;;;;12.25;87.32;94681.45;1683424;84;21137;-52
2021/06/08 01:04:31;;;;;;;9.78;6.60;;;;;;;12.21;87.31;94695.38;1683229;85;21492;-52
2021/06/08 01:06:58;;;;;;;9.05;6.45;;;;;;;12.14;87.28;94688.80;1684795;84;21021;-52
2021/06/08 01:09:24;;;;;;;9.35;6.70;;;;;;;12.07;87.34;94687.70;1681928;84;21505;-50
2021/06/08 01:11:51;;;;;;;7.28;6.58;;;;;;;12.04;87.73;94681.73;1684689;84;21077;-51
2021/06/08 01:14:17;;;;;;;10.35;7.15;;;;;;;12.05;87.99;94684.64;1687772;84;21133;-51
2021/06/08 01:16:44;;;;;;;10.58;6.58;;;;;;;12.05;88.05;94679.75;1683092;84;20981;-53
2021/06/08 01:19:10;;;;;;;12.43;6.28;;;;;;;12.01;88.04;94679.89;1681679;84;21005;-51
2021/06/08 01:21:37;;;;;;;8.43;5.95;;;;;;;11.94;87.68;94669.77;1680281;85;21492;-51
2021/06/08 01:24:05;;;;;;;10.60;6.35;;;;;;;11.91;87.91;94672.81;1683427;85;21041;-51
2021/06/08 01:26:32;;;;;;;9.50;7.20;;;;;;;11.90;87.81;94676.80;1686277;84;21131;-51
2021/06/08 01:29:01;;;;;;;7.22;6.53;;;;;;;11.91;88.20;94671.44;1682555;84;21430;-53
2021/06/08 01:31:29;;;;;;;7.70;5.90;;;;;;;11.96;88.12;94679.13;1681432;85;21009;-52
2021/06/08 01:33:56;;;;;;;6.45;5.85;;;;;;;11.92;87.74;94672.22;1679685;84;21151;-52
2021/06/08 01:36:24;;;;;;;6.62;5.50;;;;;;;11.83;87.35;94679.86;1684294;84;20997;-51
2021/06/08 01:38:51;;;;;;;6.85;6.00;;;;;;;11.78;87.46;94679.69;1682801;85;21849;-52
2021/06/08 01:41:25;;;;;;;8.65;6.42;;;;;;;11.76;87.79;94678.78;1676330;84;21443;-52
2021/06/08 01:43:52;;;;;;;8.30;6.45;;;;;;;11.76;87.89;94670.52;1685942;84;20998;-52
2021/06/08 01:46:20;;;;;;;7.12;6.30;;;;;;;11.77;87.62;94674.02;1685301;84;21587;-53
2021/06/08 01:48:47;;;;;;;8.00;6.35;;;;;;;11.72;87.66;94661.60;1683100;85;21006;-53
2021/06/08 01:51:31;;;;;;;8.55;6.45;;;;;;;11.73;87.79;94678.29;1681334;84;21137;-53
2021/06/08 01:54:34;;;;;;;9.63;6.90;;;;;;;11.75;87.63;94667.58;1679359;84;21068;-52
2021/06/08 01:57:06;;;;;;;8.45;6.60;;;;;;;11.76;87.49;94668.36;1686465;84;20962;-52
2021/06/08 02:00:01;;;;;;;7.42;6.72;;;;;;;11.73;87.34;94667.89;1682040;84;21069;-51
2021/06/08 02:02:43;;;;;;;7.15;6.33;;;;;;;11.73;87.23;94664.51;1682296;85;21470;-51
2021/06/08 02:05:24;;;;;;;8.45;7.12;;;;;;;11.75;87.14;94673.72;1682503;84;21168;-52
2021/06/08 02:07:56;;;;;;;13.43;6.97;;;;;;;11.75;86.96;94670.33;1682586;84;21045;-53
2021/06/08 02:10:53;;;;;;;7.12;6.50;;;;;;;11.76;86.97;94673.87;1683835;84;21085;-52
2021/06/08 02:14:00;;;;;;;7.95;6.15;;;;;;;11.70;86.72;94673.69;1683956;84;20977;-52
2021/06/08 02:16:41;;;;;;;6.92;6.15;;;;;;;11.65;86.90;94674.90;1682659;84;20965;-51
2021/06/08 02:19:10;;;;;;;10.03;6.20;;;;;;;11.62;86.83;94680.73;1686911;84;21133;-54
2021/06/08 02:21:41;;;;;;;8.45;6.50;;;;;;;11.65;86.99;94680.41;1682437;84;20943;-55
2021/06/08 02:24:09;;;;;;;7.72;6.58;;;;;;;11.66;86.87;94685.48;1682213;84;20958;-52
2021/06/08 02:26:38;;;;;;;6.70;6.10;;;;;;;11.67;86.91;94685.63;1686904;84;20965;-51
2021/06/08 02:29:05;;;;;;;6.45;5.85;;;;;;;11.68;86.69;94685.79;1683576;84;20966;-51
2021/06/08 02:31:33;;;;;;;8.25;6.10;;;;;;;11.68;86.57;94687.17;1685299;84;21121;-53
2021/06/08 02:33:59;;;;;;;6.85;6.25;;;;;;;11.65;86.42;94686.70;1683569;85;21017;-53
2021/06/08 02:36:26;;;;;;;10.03;6.92;;;;;;;11.63;86.75;94682.27;1686999;84;21077;-55
2021/06/08 02:38:54;;;;;;;6.92;6.10;;;;;;;11.66;86.72;94690.21;1681615;84;21005;-54
2021/06/08 02:41:21;;;;;;;6.72;6.03;;;;;;;11.66;86.68;94689.61;1681689;85;21002;-54
2021/06/08 02:43:49;;;;;;;9.53;6.17;;;;;;;11.65;86.63;94690.84;1672126;84;21141;-53
2021/06/08 02:46:16;;;;;;;8.48;7.05;;;;;;;11.67;86.75;94692.52;1681526;84;20990;-53
2021/06/08 02:48:44;;;;;;;6.95;6.35;;;;;;;11.67;86.59;94688.39;1682190;84;21030;-53
2021/06/08 02:51:11;;;;;;;9.78;6.42;;;;;;;11.67;86.65;94691.14;1656431;85;21130;-53
2021/06/08 02:53:37;;;;;;;8.15;6.30;;;;;;;11.69;86.71;94691.45;1683663;85;20958;-54
2021/06/08 02:56:06;;;;;;;6.97;6.22;;;;;;;11.71;86.68;94695.89;1684938;84;21156;-55
2021/06/08 02:58:34;;;;;;;7.80;6.37;;;;;;;11.75;86.51;94703.41;1680903;85;20970;-56
2021/06/08 03:01:00;;;;;;;7.10;6.50;;;;;;;11.74;86.34;94708.77;1631974;85;21066;-56
2021/06/08 03:03:35;;;;;;;6.70;6.10;;;;;;;11.72;86.08;94705.70;1659248;85;21018;-56
2021/06/08 03:06:14;;;;;;;7.62;6.15;;;;;;;11.69;85.79;94701.10;1679795;84;21080;-56
2021/06/08 03:09:04;;;;;;;9.85;6.40;;;;;;;11.67;85.90;94707.68;1688568;84;22016;-55
2021/06/08 03:11:40;;;;;;;9.25;6.25;;;;;;;11.65;85.66;94711.50;1680565;83;20946;-58
2021/06/08 03:14:09;;;;;;;9.10;6.17;;;;;;;11.58;85.87;94713.17;1679028;84;21176;-56
2021/06/08 03:16:39;;;;;;;11.63;6.70;;;;;;;11.57;85.91;94712.98;1681052;84;20994;-55
2021/06/08 03:19:07;;;;;;;7.67;5.67;;;;;;;11.56;85.72;94710.08;1682044;85;21478;-51
2021/06/08 03:21:43;;;;;;;6.85;5.70;;;;;;;11.55;85.49;94711.27;1661302;84;21836;-53
2021/06/08 03:24:15;;;;;;;13.38;7.85;;;;;;;11.44;85.27;94712.91;1681131;84;21041;-53
2021/06/08 03:26:43;;;;;;;22.67;7.65;;;;;;;11.32;85.51;94713.17;1681241;85;21025;-53
2021/06/08 03:29:11;;;;;;;12.13;8.05;;;;;;;11.22;85.96;94712.98;1679255;84;21045;-53
2021/06/08 03:31:40;;;;;;;11.80;8.28;;;;;;;11.18;86.35;94716.47;1679516;85;21414;-53
2021/06/08 03:34:07;;;;;;;15.45;10.20;;;;;;;11.20;86.53;94716.78;1684314;84;21035;-53
2021/06/08 03:36:34;;;;;;;17.80;10.25;;;;;;;11.21;86.65;94716.94;1670848;84;20985;-54
2021/06/08 03:39:02;;;;;;;14.40;9.53;;;;;;;11.24;86.89;94718.03;1684522;84;21232;-54
2021/06/08 03:41:28;;;;;;;16.52;10.68;;;;;;;11.26;86.77;94716.37;1682036;84;20970;-54
2021/06/08 03:43:55;;;;;;;12.33;9.30;;;;;;;11.28;87.02;94718.66;1650053;85;20987;-53
2021/06/08 03:46:25;;;;;;;11.57;10.30;;;;;;;11.36;87.28;94720.69;1682456;84;21541;-53
2021/06/08 03:48:52;;;;;;;15.13;9.60;;;;;;;11.44;86.78;94715.67;1683485;84;21561;-53
2021/06/08 03:51:20;;;;;;;18.42;11.25;;;;;;;11.49;86.44;94726.12;1685501;84;20958;-53
2021/06/08 03:53:47;;;;;;;12.63;10.00;;;;;;;11.52;86.47;94721.83;1680405;84;20991;-52
2021/06/08 03:56:14;;;;;;;11.40;8.65;;;;;;;11.59;86.29;94716.69;1678069;84;20946;-54
2021/06/08 03:58:41;;;;;;;13.75;8.68;;;;;;;11.68;86.09;94718.86;1658980;84;21783;-53
2021/06/08 04:01:07;;;;;;;18.70;9.88;;;;;;;11.76;86.16;94717.97;1680389;84;20947;-53
2021/06/08 04:03:34;;;;;;;19.48;10.30;;;;;;;11.83;86.14;94714.91;1682152;84;21061;-53
2021/06/08 04:06:01;;;;;;;14.75;8.38;;;;;;;11.87;85.76;94707.29;1685356;84;21069;-53
2021/06/08 04:08:28;;;;;;;9.15;8.25;;;;;;;11.94;85.52;94718.02;1681612;84;21057;-53
2021/06/08 04:10:56;;;;;;;12.43;8.98;;;;;;;12.04;85.60;94718.95;1682352;85;21135;-54
2021/06/08 04:13:22;;;;;;;13.72;8.70;;;;;;;12.13;85.20;94709.93;1683964;84;21017;-52
2021/06/08 04:15:50;;;;;;;13.78;9.35;;;;;;;12.16;85.07;94715.30;1683447;85;21041;-53
2021/06/08 04:18:17;;;;;;;13.98;8.48;;;;;;;12.20;85.07;94715.92;1681078;84;21565;-53
2021/06/08 04:20:45;;;;;;;11.68;8.30;;;;;;;12.32;85.00;94717.00;1681741;85;21026;-53
2021/06/08 04:23:11;;;;;;;12.53;8.33;;;;;;;12.45;84.72;94719.01;1684561;83;21124;-53
2021/06/08 04:25:38;;;;;;;12.35;8.65;;;;;;;12.53;84.50;94719.63;1682665;84;20978;-53
2021/06/08 04:28:04;;;;;;;16.25;9.15;;;;;;;12.64;84.23;94722.67;1680829;84;20958;-54
2021/06/08 04:30:31;;;;;;;10.58;8.35;;;;;;;12.72;84.08;94721.15;1681819;85;21002;-53
2021/06/08 04:32:57;;;;;;;12.63;8.63;;;;;;;12.80;83.99;94719.59;1681335;83;21172;-54
2021/06/08 04:35:24;;;;;;;17.90;10.20;;;;;;;12.90;83.69;94716.99;1681579;84;21873;-54
2021/06/08 04:37:50;;;;;;;11.70;7.92;;;;;;;12.99;83.42;94719.75;1684464;85;21508;-54
2021/06/08 04:40:17;;;;;;;10.63;8.40;;;;;;;13.04;83.31;94717.14;1683880;84;20974;-53
2021/06/08 04:42:46;;;;;;;14.10;8.78;;;;;;;13.10;83.09;94711.77;1682865;85;20977;-53
2021/06/08 04:45:14;;;;;;;11.43;7.67;;;;;;;13.21;82.88;94711.43;1683999;84;21100;-53
2021/06/08 04:47:40;;;;;;;18.62;9.10;;;;;;;13.34;82.63;94717.55;1684319;84;21121;-53
2021/06/08 04:50:09;;;;;;;24.98;10.90;;;;;;;13.46;82.16;94712.42;1680964;85;20934;-54
2021/06/08 04:52:36;;;;;;;10.45;7.90;;;;;;;13.61;81.48;94711.16;1678255;85;21089;-53
2021/06/08 04:55:06;;;;;;;8.43;7.40;;;;;;;13.74;80.85;94718.00;1683952;84;21054;-52
2021/06/08 04:57:33;;;;;;;12.43;8.75;;;;;;;13.80;80.44;94713.98;1686105;84;21533;-53
2021/06/08 05:00:13;;;;;;;13.43;8.53;;;;;;;13.77;80.33;94715.67;1684745;85;21497;-53
2021/06/08 05:02:46;;;;;;;11.68;6.92;;;;;;;13.71;80.33;94721.70;1682895;84;21119;-53
2021/06/08 05:05:29;;;;;;;8.70;7.80;;;;;;;13.70;79.97;94719.39;1682099;84;20998;-53
2021/06/08 05:08:32;;;;;;;10.53;7.00;;;;;;;13.68;80.36;94716.33;1682895;84;21006;-54
2021/06/08 05:11:36;;;;;;;8.00;7.03;;;;;;;13.69;80.54;94715.09;1681295;84;20958;-53
2021/06/08 05:14:04;;;;;;;12.37;6.65;;;;;;;13.64;80.56;94717.88;1654107;84;21169;-53
2021/06/08 05:16:31;;;;;;;12.68;6.67;;;;;;;13.55;80.99;94710.23;1676018;84;21478;-54
2021/06/08 05:18:57;;;;;;;15.78;6.78;;;;;;;13.58;81.46;94720.36;1679646;84;21006;-54
2021/06/08 05:21:24;;;;;;;13.00;7.58;;;;;;;13.68;81.95;94717.11;1681818;84;20970;-53
2021/06/08 05:23:52;;;;;;;9.58;7.67;;;;;;;13.76;81.41;94709.22;1684671;84;21176;-56
2021/06/08 05:26:20;;;;;;;9.35;7.22;;;;;;;13.82;80.78;94717.05;1683298;84;21594;-53
2021/06/08 05:28:46;;;;;;;12.98;6.78;;;;;;;13.90;80.58;94719.00;1686809;84;20950;-54
2021/06/08 05:31:19;;;;;;;9.85;7.45;;;;;;;14.05;80.36;94712.93;1684816;84;21535;-54
2021/06/08 05:33:46;;;;;;;10.18;6.95;;;;;;;14.24;79.52;94716.37;1680861;84;20985;-55
2021/06/08 05:36:13;;;;;;;10.43;6.92;;;;;;;14.40;78.72;94713.19;1681918;83;20985;-54
2021/06/08 05:38:42;;;;;;;7.80;6.83;;;;;;;14.52;78.50;94705.41;1680106;82;21160;-54
2021/06/08 05:41:11;;;;;;;11.03;6.40;;;;;;;14.61;77.50;94712.24;1680484;83;21099;-53
2021/06/08 05:43:38;;;;;;;10.50;7.22;;;;;;;14.69;76.98;94716.20;1687967;83;21158;-53
2021/06/08 05:46:05;;;;;;;11.88;7.87;;;;;;;14.78;77.25;94716.11;1676455;83;21113;-54
2021/06/08 05:48:32;;;;;;;9.98;7.05;;;;;;;14.91;76.75;94718.00;1680553;82;21117;-56
2021/06/08 05:51:02;;;;;;;23.80;7.45;;;;;;;15.05;76.17;94720.03;1700975;82;21128;-54
2021/06/08 05:53:29;;;;;;;13.48;7.67;;;;;;;15.17;75.84;94709.27;1691825;83;20967;-54
2021/06/08 05:55:57;;;;;;;14.93;7.20;;;;;;;15.22;75.39;94715.53;1686671;83;20977;-51
2021/06/08 05:58:28;;;;;;;15.05;7.97;;;;;;;15.29;75.56;94715.20;1698881;82;21525;-55
2021/06/08 06:00:56;;;;;;;18.85;7.72;;;;;;;15.40;75.03;94702.89;1690955;82;21058;-58
2021/06/08 06:03:23;;;;;;;10.38;7.12;;;;;;;15.51;74.86;94705.86;1689102;83;21123;-54
2021/06/08 06:05:52;;;;;;;8.88;6.72;;;;;;;15.67;74.35;94701.81;1692467;83;21538;-54
2021/06/08 06:08:21;;;;;;;16.10;7.85;;;;;;;15.81;74.16;94701.80;1639151;83;22039;-55
2021/06/08 06:10:48;;;;;;;16.00;7.60;;;;;;;15.95;74.53;94695.44;1613675;86;21052;-55
2021/06/08 06:13:22;;;;;;;9.50;6.47;;;;;;;16.14;74.65;94692.58;1608660;87;21474;-55
2021/06/08 06:15:49;;;;;;;8.83;6.70;;;;;;;16.32;74.41;94695.07;1605345;87;21114;-55
2021/06/08 06:18:18;;;;;;;9.13;6.50;;;;;;;16.41;73.90;94689.42;1616231;87;22646;-56
2021/06/08 06:20:47;;;;;;;12.30;7.83;;;;;;;16.48;73.62;94691.77;1610221;87;21063;-54
2021/06/08 06:23:18;;;;;;;20.45;8.38;;;;;;;16.50;73.48;94690.05;1612137;87;21432;-55
2021/06/08 06:25:45;;;;;;;9.20;7.20;;;;;;;16.53;74.00;94682.77;1595773;87;21113;-57
2021/06/08 06:28:14;;;;;;;9.78;7.15;;;;;;;16.67;74.32;94686.84;1617705;86;21211;-54
2021/06/08 06:30:41;;;;;;;7.40;6.35;;;;;;;16.82;74.17;94685.36;1618219;86;21087;-54
2021/06/08 06:33:08;;;;;;;19.30;8.25;;;;;;;16.92;73.54;94690.27;1605922;86;21088;-58
2021/06/08 06:35:35;;;;;;;14.87;7.42;;;;;;;16.90;73.14;94689.26;1613160;86;21043;-60
2021/06/08 06:38:03;;;;;;;10.65;6.47;;;;;;;16.79;73.54;94688.52;1614281;86;21708;-55
2021/06/08 06:40:30;;;;;;;13.48;6.67;;;;;;;16.70;72.97;94692.06;1610079;87;21174;-54
2021/06/08 06:43:02;;;;;;;6.92;5.62;;;;;;;16.57;73.58;94697.20;1606637;86;21111;-55
2021/06/08 06:45:31;;;;;;;7.85;6.15;;;;;;;16.47;73.55;94702.13;1603180;87;21083;-55
2021/06/08 06:48:04;;;;;;;10.55;6.03;;;;;;;16.38;73.94;94700.12;1599045;87;21174;-56
2021/06/08 06:50:34;;;;;;;8.53;6.67;;;;;;;16.34;74.02;94709.26;1605594;87;21099;-54
2021/06/08 06:53:00;;;;;;;14.28;6.60;;;;;;;16.22;74.18;94704.80;1602177;87;21228;-57
2021/06/08 06:55:28;;;;;;;7.80;6.67;;;;;;;16.10;74.51;94718.36;1597503;87;21078;-56
2021/06/08 06:57:55;;;;;;;9.68;6.50;;;;;;;15.99;75.00;94714.06;1605927;87;21054;-55
2021/06/08 07:00:25;;;;;;;14.93;8.45;;;;;;;15.88;75.46;94704.81;1602202;86;21100;-56
2021/06/08 07:02:53;;;;;;;7.67;6.55;;;;;;;15.84;76.05;94718.09;1612825;87;21577;-59
2021/06/08 07:05:23;;;;;;;8.48;6.47;;;;;;;15.76;76.58;94714.95;1609387;88;21184;-56
2021/06/08 07:07:51;;;;;;;7.65;6.08;;;;;;;15.69;77.21;94714.60;1604095;87;21927;-54
2021/06/08 07:10:22;;;;;;;11.00;6.83;;;;;;;15.61;77.62;94712.84;1614603;87;21065;-56
2021/06/08 07:12:49;;;;;;;9.10;6.53;;;;;;;15.60;78.02;94711.31;1608948;87;21103;-55
2021/06/08 07:15:16;;;;;;;7.45;6.37;;;;;;;15.66;78.01;94713.55;1589913;87;21095;-57
2021/06/08 07:17:43;;;;;;;9.20;6.55;;;;;;;15.71;77.40;94719.05;1611475;87;21177;-57
2021/06/08 07:20:13;;;;;;;10.53;6.50;;;;;;;15.75;77.41;94709.27;1614471;87;21042;-55
2021/06/08 07:22:39;;;;;;;12.00;6.55;;;;;;;15.77;77.63;94713.70;1611745;87;21084;-55
2021/06/08 07:25:08;;;;;;;7.05;5.83;;;;;;;15.79;77.80;94707.08;1612208;87;21104;-56
2021/06/08 07:27:35;;;;;;;7.20;5.67;;;;;;;15.81;77.83;94715.68;1611862;87;21037;-55
2021/06/08 07:30:04;;;;;;;8.93;7.10;;;;;;;15.79;77.93;94723.72;1611458;87;21142;-54
2021/06/08 07:32:47;;;;;;;13.60;7.08;;;;;;;15.78;78.23;94723.58;1610570;87;21083;-55
2021/06/08 07:35:34;;;;;;;16.37;7.70;;;;;;;15.84;78.26;94727.80;1598530;86;21122;-55
2021/06/08 07:38:08;;;;;;;11.05;8.60;;;;;;;15.87;77.72;94730.39;1606713;87;21045;-56
2021/06/08 07:40:41;;;;;;;9.43;8.38;;;;;;;15.91;77.84;94718.47;1591882;87;21095;-56
2021/06/08 07:43:09;;;;;;;8.68;7.37;;;;;;;15.91;78.04;94729.56;1576944;89;21328;-56
2021/06/08 07:45:44;;;;;;;8.03;6.37;;;;;;;15.91;78.00;94722.62;1558742;88;21133;-55
2021/06/08 07:48:15;;;;;;;22.45;17.15;;;;;;;15.99;77.79;94722.38;1598041;87;21075;-54
2021/06/08 07:50:44;;;;;;;14.78;9.45;;;;;;;16.01;77.87;94719.89;1609376;86;21037;-59
2021/06/08 07:53:13;;;;;;;8.95;8.05;;;;;;;16.11;78.36;94724.70;1602805;87;21183;-55
2021/06/08 07:55:42;;;;;;;10.03;7.97;;;;;;;16.21;78.53;94724.09;1603034;87;21137;-58
2021/06/08 07:58:10;;;;;;;8.65;7.22;;;;;;;16.37;78.78;94723.59;1611091;87;21061;-59
2021/06/08 08:00:37;;;;;;;11.75;9.65;;;;;;;16.54;79.17;94724.57;1608750;87;21161;-60
2021/06/08 08:05:50;;;;;;;9.58;7.47;;;;;;;16.92;78.58;94724.27;1612925;87;21101;-55
2021/06/08 08:08:19;;;;;;;10.98;7.47;;;;;;;17.20;77.09;94723.92;1597881;87;21618;-54
2021/06/08 08:10:48;;;;;;;13.15;7.50;;;;;;;17.39;76.21;94719.59;1590487;88;21009;-56
2021/06/08 08:13:16;;;;;;;11.70;7.67;;;;;;;17.60;75.60;94727.39;1608731;87;21073;-58
2021/06/08 08:15:45;;;;;;;10.43;7.72;;;;;;;17.78;73.93;94723.48;1587380;87;21452;-52
2021/06/08 08:18:12;;;;;;;13.75;8.18;;;;;;;17.91;73.47;94721.06;1604748;86;21104;-57
2021/06/08 08:20:49;;;;;;;9.53;7.92;;;;;;;18.08;73.02;94719.16;1612765;87;21813;-56
2021/06/08 08:23:16;;;;;;;15.28;9.90;;;;;;;18.23;73.06;94717.11;1596752;87;21115;-59
2021/06/08 08:25:44;;;;;;;11.20;9.43;;;;;;;18.44;72.99;94717.14;1620241;87;21079;-55
2021/06/08 08:28:11;;;;;;;9.80;7.85;;;;;;;18.66;72.56;94713.71;1617768;86;21104;-56
2021/06/08 08:30:40;;;;;;;7.50;6.67;;;;;;;18.85;71.31;94709.97;1605723;87;21075;-56
2021/06/08 08:33:08;;;;;;;12.80;8.33;;;;;;;19.04;69.31;94703.33;1597677;87;21166;-55
2021/06/08 08:35:39;;;;;;;8.15;5.70;;;;;;;19.16;67.71;94711.87;1614650;87;21079;-56
2021/06/08 08:38:06;;;;;;;6.12;5.30;;;;;;;19.23;66.29;94698.20;1616827;87;21080;-55
2021/06/08 08:40:34;;;;;;;6.90;5.08;;;;;;;19.33;64.43;94705.08;1613087;86;21120;-56
2021/06/08 08:43:04;;;;;;;9.35;5.25;;;;;;;19.47;64.61;94706.11;1599951;87;21035;-56
2021/06/08 08:45:33;;;;;;;8.60;5.70;;;;;;;19.56;62.98;94696.11;1582664;89;21165;-59
2021/06/08 08:48:00;;;;;;;9.35;5.12;;;;;;;19.66;62.04;94706.52;1606367;87;21153;-57
2021/06/08 08:50:27;;;;;;;7.15;4.90;;;;;;;19.70;62.01;94697.26;1613333;87;21072;-56
2021/06/08 08:53:02;;;;;;;5.20;4.72;;;;;;;19.79;61.27;94699.03;1603917;86;21079;-57
2021/06/08 08:55:34;;;;;;;8.13;4.78;;;;;;;19.90;60.49;94692.81;1609141;87;21544;-55
2021/06/08 08:58:03;;;;;;;6.55;4.65;;;;;;;19.99;59.72;94702.34;1603249;86;21940;-54
2021/06/08 09:00:32;;;;;;;9.68;4.62;;;;;;;20.10;58.33;94706.53;1615185;87;21116;-55
2021/06/08 09:03:02;;;;;;;8.33;4.33;;;;;;;20.18;57.65;94702.71;1602111;85;22173;-54
2021/06/08 09:05:34;;;;;;;5.67;5.00;;;;;;;20.27;57.59;94701.06;1612813;86;21061;-56
2021/06/08 09:07:58;;;;;;;9.50;5.28;;;;;;;20.33;58.42;94705.22;1574943;89;21640;-56
2021/06/08 09:10:25;;;;;;;8.58;6.25;;;;;;;20.43;59.32;94707.88;1573662;88;21813;-56
2021/06/08 09:12:51;;;;;;;6.25;4.03;;;;;;;20.51;57.76;94701.25;1565428;89;21032;-58
2021/06/08 09:15:18;;;;;;;7.50;4.22;;;;;;;20.57;56.46;94701.25;1562069;89;21122;-53
2021/06/08 09:17:45;;;;;;;7.33;4.55;;;;;;;20.65;56.59;94700.83;1579441;88;21015;-55
2021/06/08 09:20:14;;;;;;;6.60;4.83;;;;;;;20.78;56.42;94700.39;1570104;89;21420;-58
2021/06/08 09:22:57;;;;;;;6.62;4.25;;;;;;;20.95;56.92;94700.38;1571814;89;22042;-58
2021/06/08 09:25:39;;;;;;;4.62;3.55;;;;;;;21.13;55.86;94697.72;1595434;86;20987;-54
2021/06/08 09:28:23;;;;;;;4.30;3.92;;;;;;;21.27;55.32;94700.09;1608490;87;21677;-58
2021/06/08 09:31:23;;;;;;;6.08;4.45;;;;;;;21.34;53.84;94700.30;1602262;87;21018;-57
2021/06/08 09:33:54;;;;;;;4.78;4.37;;;;;;;21.39;53.46;94697.33;1601696;87;21051;-55
2021/06/08 09:36:29;;;;;;;4.37;3.98;;;;;;;21.53;53.46;94692.80;1594581;88;21241;-54
2021/06/08 09:39:05;;;;;;;11.73;4.58;;;;;;;21.77;53.47;94693.53;1604885;87;21080;-55
2021/06/08 09:41:43;;;;;;;6.87;4.12;;;;;;;22.02;53.21;94690.92;1597733;87;21548;-55
2021/06/08 09:44:16;;;;;;;7.22;4.50;;;;;;;22.23;51.88;94689.31;1614974;87;21099;-55
2021/06/08 09:46:54;;;;;;;5.15;4.65;;;;;;;22.40;50.88;94692.75;1606690;86;21597;-55
2021/06/08 09:49:41;;;;;;;7.58;4.42;;;;;;;22.58;50.49;94683.64;1611775;87;21110;-55
2021/06/08 09:52:08;;;;;;;6.50;4.58;;;;;;;22.83;51.15;94682.31;1613252;87;21179;-57
2021/06/08 09:54:39;;;;;;;8.88;5.12;;;;;;;23.04;51.19;94674.16;1603559;88;21694;-53
2021/06/08 09:57:27;;;;;;;7.20;4.58;;;;;;;23.15;50.67;94677.61;1601968;86;21174;-55
2021/06/08 10:00:01;;;;;;;8.05;5.05;;;;;;;23.32;49.47;94678.78;1576689;88;21007;-56
2021/06/08 10:02:47;;;;;;;5.10;4.60;;;;;;;23.51;50.15;94673.28;1594494;88;21184;-58
2021/06/08 10:05:24;;;;;;;6.37;3.98;;;;;;;23.64;51.10;94667.73;1616621;87;21103;-55
2021/06/08 10:07:56;;;;;;;5.00;3.80;;;;;;;23.64;50.06;94675.38;1612850;87;21341;-53
2021/06/08 10:10:25;;;;;;;14.23;5.33;;;;;;;23.47;50.82;94679.85;1608609;87;21430;-55
2021/06/08 10:13:11;;;;;;;6.42;4.10;;;;;;;23.29;50.84;94675.00;1609356;87;21409;-54
2021/06/08 10:15:59;;;;;;;7.67;4.45;;;;;;;23.12;51.19;94677.91;1592177;88;21164;-57
2021/06/08 10:18:26;;;;;;;8.35;6.42;;;;;;;22.86;51.09;94684.06;1585384;87;21060;-55
2021/06/08 10:20:55;;;;;;;6.40;4.37;;;;;;;22.66;52.67;94690.82;1612692;86;21188;-55
2021/06/08 10:23:28;;;;;;;5.10;3.75;;;;;;;22.59;51.71;94685.16;1609463;87;21098;-54
2021/06/08 10:26:01;;;;;;;5.87;4.12;;;;;;;22.54;50.20;94684.58;1616482;87;21079;-60
2021/06/08 10:28:29;;;;;;;8.55;4.17;;;;;;;22.45;47.05;94673.70;1612661;86;21163;-55
2021/06/08 10:30:58;;;;;;;6.33;4.05;;;;;;;22.43;48.02;94674.87;1600329;88;21033;-54
2021/06/08 10:33:25;;;;;;;6.25;4.08;;;;;;;22.43;48.45;94674.09;1616524;87;21580;-54
2021/06/08 10:35:53;;;;;;;9.23;4.37;;;;;;;22.36;46.21;94674.03;1618049;86;21027;-53
2021/06/08 10:38:20;;;;;;;9.55;4.20;;;;;;;22.33;45.45;94675.05;1622202;86;21066;-56
2021/06/08 10:40:52;;;;;;;8.70;4.80;;;;;;;22.36;44.88;94671.23;1619145;86;21160;-52
2021/06/08 10:43:28;;;;;;;7.87;4.07;;;;;;;22.39;45.44;94667.39;1623490;87;21933;-52
2021/06/08 10:45:57;;;;;;;13.75;4.72;;;;;;;22.45;46.38;94668.09;1612413;87;21150;-58
2021/06/08 10:48:38;;;;;;;6.87;4.55;;;;;;;22.51;45.67;94654.02;1574765;88;21092;-58
2021/06/08 10:51:18;;;;;;;5.40;4.05;;;;;;;22.63;46.51;94654.76;1598772;87;21685;-55
2021/06/08 10:53:57;;;;;;;15.65;4.15;;;;;;;22.80;46.21;94649.70;1604129;87;21269;-54
2021/06/08 10:56:35;;;;;;;19.45;5.17;;;;;;;22.95;44.78;94638.81;1574569;88;21062;-54
2021/06/08 10:59:05;;;;;;;7.97;4.05;;;;;;;23.07;44.28;94640.19;1597610;87;21054;-58
2021/06/08 11:01:41;;;;;;;;;;;;;;;23.26;43.79;94643.78;1609005;87;21146;-57
2021/06/08 11:04:19;;;;;;;7.60;3.87;;;;;;;23.50;43.22;94638.06;1615463;87;21403;-56
2021/06/08 11:06:56;;;;;;;7.37;3.60;;;;;;;23.74;42.96;94634.38;1609167;86;21223;-57
2021/06/08 11:09:32;;;;;;;5.62;3.52;;;;;;;23.98;44.62;94632.18;1593022;87;21188;-55
2021/06/08 11:12:16;;;;;;;10.73;5.20;;;;;;;24.07;40.51;94626.16;1596023;88;21103;-51
2021/06/08 11:14:48;;;;;;;15.80;9.70;;;;;;;24.05;40.56;94631.56;1580522;87;21072;-58
2021/06/08 11:17:33;;;;;;;12.23;4.75;;;;;;;24.04;41.49;94621.62;1591121;87;22293;-54
2021/06/08 11:20:07;;;;;;;9.30;4.30;;;;;;;24.11;41.91;94613.94;1562161;89;21389;-55
2021/06/08 11:22:43;;;;;;;7.42;3.67;;;;;;;24.17;40.92;94616.02;1555788;88;21664;-55
2021/06/08 11:25:37;;;;;;;10.03;3.60;;;;;;;24.24;39.76;94608.34;1559698;90;21139;-53
2021/06/08 11:28:06;;;;;;;7.03;3.65;;;;;;;24.20;40.00;94603.70;1536004;91;21606;-52
2021/06/08 11:30:43;;;;;;;9.58;4.25;;;;;;;24.07;40.71;94600.22;1605144;86;21171;-55
2021/06/08 11:33:34;;;;;;;7.20;4.33;;;;;;;24.46;41.48;94602.29;1600648;87;21218;-53
2021/06/08 11:36:05;;;;;;;6.95;3.62;;;;;;;24.51;41.39;94598.60;1613374;87;21425;-56
2021/06/08 11:38:34;;;;;;;4.17;3.55;;;;;;;24.95;38.89;94591.44;1605900;87;21185;-55
2021/06/08 11:41:09;;;;;;;10.58;3.35;;;;;;;25.42;39.83;94588.63;1608513;86;21218;-56
2021/06/08 11:43:44;;;;;;;4.65;2.80;;;;;;;26.10;39.50;94592.97;1613816;86;21079;-57
2021/06/08 11:46:17;;;;;;;3.50;3.00;;;;;;;26.80;38.44;94590.17;1593429;87;21468;-59
2021/06/08 11:48:49;;;;;;;4.28;3.20;;;;;;;27.40;37.22;94589.02;1585353;87;21072;-57